sensor_id;sensor_type;location;lat;lon;timestamp;pressure;altitude;pressure_sealevel;temperature;humidity
20119;BME280;10220;42.716;23.306;2022-09-03T00:00:20;95189.69;;;16.69;100.00
20119;BME280;10220;42.716;23.306;2022-09-03T00:03:13;95194.22;;;16.74;100.00
20119;BME280;10220;42.716;23.306;2022-09-03T00:06:10;95190.88;;;16.78;100.00
20119;BME280;10220;42.716;23.306;2022-09-03T00:11:52;95199.31;;;16.64;100.00
20119;BME280;10220;42.716;23.306;2022-09-03T00:14:08;95207.78;;;16.71;100.00
20119;BME280;10220;42.716;23.306;2022-09-03T00:16:52;95206.25;;;16.75;100.00
20119;BME280;10220;42.716;23.306;2022-09-03T00:19:21;95212.31;;;16.75;100.00
20119;BME280;10220;42.716;23.306;2022-09-03T00:22:20;95200.75;;;16.71;100.00
20119;BME280;10220;42.716;23.306;2022-09-03T00:24:47;95204.69;;;16.57;100.00
20119;BME280;10220;42.716;23.306;2022-09-03T00:27:36;95205.81;;;16.61;100.00
20119;BME280;10220;42.716;23.306;2022-09-03T00:30:08;95173.63;;;16.45;100.00
20119;BME280;10220;42.716;23.306;2022-09-03T00:35:21;95200.56;;;16.78;100.00
20119;BME280;10220;42.716;23.306;2022-09-03T00:37:53;95181.94;;;16.74;100.00
20119;BME280;10220;42.716;23.306;2022-09-03T00:43:21;95183.78;;;16.74;100.00
20119;BME280;10220;42.716;23.306;2022-09-03T00:48:25;95196.56;;;16.92;100.00
20119;BME280;10220;42.716;23.306;2022-09-03T00:56:16;95196.59;;;16.75;100.00
20119;BME280;10220;42.716;23.306;2022-09-03T01:04:58;95150.88;;;16.45;100.00
20119;BME280;10220;42.716;23.306;2022-09-03T01:10:30;95199.84;;;16.82;100.00
20119;BME280;10220;42.716;23.306;2022-09-03T01:18:25;95196.44;;;16.82;100.00
20119;BME280;10220;42.716;23.306;2022-09-03T01:20:58;95196.69;;;16.64;100.00
20119;BME280;10220;42.716;23.306;2022-09-03T01:26:48;95202.66;;;16.59;100.00
20119;BME280;10220;42.716;23.306;2022-09-03T01:32:21;95191.22;;;16.33;100.00
20119;BME280;10220;42.716;23.306;2022-09-03T01:37:53;95219.28;;;16.53;100.00
20119;BME280;10220;42.716;23.306;2022-09-03T01:46:38;95236.00;;;16.52;100.00
20119;BME280;10220;42.716;23.306;2022-09-03T01:49:30;95211.53;;;16.58;100.00
20119;BME280;10220;42.716;23.306;2022-09-03T01:52:11;95205.72;;;16.56;100.00
20119;BME280;10220;42.716;23.306;2022-09-03T01:57:39;95212.47;;;16.52;100.00
20119;BME280;10220;42.716;23.306;2022-09-03T02:00:08;95207.53;;;16.72;100.00
20119;BME280;10220;42.716;23.306;2022-09-03T02:02:34;95218.31;;;16.76;100.00
20119;BME280;10220;42.716;23.306;2022-09-03T02:10:12;95213.56;;;16.73;100.00
20119;BME280;10220;42.716;23.306;2022-09-03T02:12:40;95210.88;;;16.68;100.00
20119;BME280;10220;42.716;23.306;2022-09-03T02:15:14;95235.00;;;16.70;100.00
20119;BME280;10220;42.716;23.306;2022-09-03T02:17:42;95225.78;;;16.67;100.00
20119;BME280;10220;42.716;23.306;2022-09-03T02:20:11;95216.41;;;16.39;100.00
20119;BME280;10220;42.716;23.306;2022-09-03T02:22:39;95204.47;;;16.59;100.00
20119;BME280;10220;42.716;23.306;2022-09-03T02:25:05;95222.84;;;16.64;100.00
20119;BME280;10220;42.716;23.306;2022-09-03T02:27:31;95228.16;;;16.69;100.00
20119;BME280;10220;42.716;23.306;2022-09-03T02:29:57;95210.50;;;16.59;100.00
20119;BME280;10220;42.716;23.306;2022-09-03T02:32:23;95193.91;;;16.54;100.00
20119;BME280;10220;42.716;23.306;2022-09-03T02:34:48;95224.69;;;16.63;100.00
20119;BME280;10220;42.716;23.306;2022-09-03T02:37:15;95239.56;;;16.63;100.00
20119;BME280;10220;42.716;23.306;2022-09-03T02:39:41;95233.66;;;16.67;100.00
20119;BME280;10220;42.716;23.306;2022-09-03T02:42:08;95240.28;;;16.75;100.00
20119;BME280;10220;42.716;23.306;2022-09-03T02:44:37;95239.75;;;16.73;100.00
20119;BME280;10220;42.716;23.306;2022-09-03T02:47:06;95201.91;;;16.47;100.00
20119;BME280;10220;42.716;23.306;2022-09-03T02:49:33;95235.44;;;16.67;100.00
20119;BME280;10220;42.716;23.306;2022-09-03T02:52:01;95246.56;;;16.74;100.00
20119;BME280;10220;42.716;23.306;2022-09-03T02:54:31;95257.34;;;16.61;100.00
20119;BME280;10220;42.716;23.306;2022-09-03T02:56:58;95249.34;;;16.67;100.00
20119;BME280;10220;42.716;23.306;2022-09-03T02:59:24;95238.56;;;16.64;100.00
20119;BME280;10220;42.716;23.306;2022-09-03T03:01:52;95251.56;;;16.43;100.00
20119;BME280;10220;42.716;23.306;2022-09-03T03:04:18;95234.03;;;16.43;100.00
20119;BME280;10220;42.716;23.306;2022-09-03T03:06:43;95238.78;;;16.62;100.00
20119;BME280;10220;42.716;23.306;2022-09-03T03:09:09;95207.38;;;16.46;100.00
20119;BME280;10220;42.716;23.306;2022-09-03T03:11:34;95208.75;;;16.48;100.00
20119;BME280;10220;42.716;23.306;2022-09-03T03:14:01;95226.91;;;16.55;100.00
20119;BME280;10220;42.716;23.306;2022-09-03T03:16:27;95233.72;;;16.56;100.00
20119;BME280;10220;42.716;23.306;2022-09-03T03:18:55;95224.09;;;16.45;100.00
20119;BME280;10220;42.716;23.306;2022-09-03T03:21:20;95224.28;;;16.55;100.00
20119;BME280;10220;42.716;23.306;2022-09-03T03:23:46;95236.19;;;16.62;100.00
20119;BME280;10220;42.716;23.306;2022-09-03T03:26:14;95220.63;;;16.72;100.00
20119;BME280;10220;42.716;23.306;2022-09-03T03:28:42;95232.53;;;16.63;100.00
20119;BME280;10220;42.716;23.306;2022-09-03T03:31:10;95223.38;;;16.66;100.00
20119;BME280;10220;42.716;23.306;2022-09-03T03:33:37;95230.78;;;16.69;100.00
20119;BME280;10220;42.716;23.306;2022-09-03T03:36:07;95238.78;;;16.62;100.00
20119;BME280;10220;42.716;23.306;2022-09-03T03:38:33;95212.53;;;16.57;100.00
20119;BME280;10220;42.716;23.306;2022-09-03T03:40:59;95233.72;;;16.56;100.00
20119;BME280;10220;42.716;23.306;2022-09-03T03:43:24;95241.16;;;16.47;100.00
20119;BME280;10220;42.716;23.306;2022-09-03T03:45:57;95242.59;;;16.55;100.00
20119;BME280;10220;42.716;23.306;2022-09-03T03:48:23;95237.50;;;16.48;100.00
20119;BME280;10220;42.716;23.306;2022-09-03T03:50:49;95233.16;;;16.54;100.00
20119;BME280;10220;42.716;23.306;2022-09-03T03:53:15;95241.00;;;16.54;100.00
20119;BME280;10220;42.716;23.306;2022-09-03T03:55:40;95245.19;;;16.55;100.00
20119;BME280;10220;42.716;23.306;2022-09-03T03:58:06;95237.13;;;16.56;100.00
20119;BME280;10220;42.716;23.306;2022-09-03T04:00:31;95247.66;;;16.61;100.00
20119;BME280;10220;42.716;23.306;2022-09-03T04:03:00;95251.78;;;16.57;100.00
20119;BME280;10220;42.716;23.306;2022-09-03T04:05:26;95243.59;;;16.54;100.00
20119;BME280;10220;42.716;23.306;2022-09-03T04:07:51;95233.63;;;16.51;100.00
20119;BME280;10220;42.716;23.306;2022-09-03T04:10:16;95242.25;;;16.51;100.00
20119;BME280;10220;42.716;23.306;2022-09-03T04:12:42;95235.91;;;16.47;100.00
20119;BME280;10220;42.716;23.306;2022-09-03T04:15:08;95253.69;;;16.46;100.00
20119;BME280;10220;42.716;23.306;2022-09-03T04:17:33;95237.34;;;16.55;100.00
20119;BME280;10220;42.716;23.306;2022-09-03T04:19:58;95242.44;;;16.61;100.00
20119;BME280;10220;42.716;23.306;2022-09-03T04:22:24;95241.22;;;16.52;100.00
20119;BME280;10220;42.716;23.306;2022-09-03T04:24:49;95243.16;;;16.57;100.00
20119;BME280;10220;42.716;23.306;2022-09-03T04:27:15;95247.56;;;16.56;100.00
20119;BME280;10220;42.716;23.306;2022-09-03T04:29:40;95249.56;;;16.49;100.00
20119;BME280;10220;42.716;23.306;2022-09-03T04:32:05;95253.69;;;16.62;100.00
20119;BME280;10220;42.716;23.306;2022-09-03T04:34:49;95258.69;;;16.47;100.00
20119;BME280;10220;42.716;23.306;2022-09-03T04:37:15;95255.47;;;16.45;100.00
20119;BME280;10220;42.716;23.306;2022-09-03T04:39:43;95272.88;;;16.23;100.00
20119;BME280;10220;42.716;23.306;2022-09-03T04:42:09;95276.41;;;16.29;100.00
20119;BME280;10220;42.716;23.306;2022-09-03T04:44:34;95274.66;;;16.34;100.00
20119;BME280;10220;42.716;23.306;2022-09-03T04:47:03;95270.22;;;16.35;100.00
20119;BME280;10220;42.716;23.306;2022-09-03T04:49:29;95280.72;;;16.51;100.00
20119;BME280;10220;42.716;23.306;2022-09-03T04:51:55;95282.34;;;16.41;100.00
20119;BME280;10220;42.716;23.306;2022-09-03T04:54:20;95292.81;;;16.41;100.00
20119;BME280;10220;42.716;23.306;2022-09-03T04:56:46;95253.22;;;16.21;100.00
20119;BME280;10220;42.716;23.306;2022-09-03T04:59:11;95290.22;;;16.41;100.00
20119;BME280;10220;42.716;23.306;2022-09-03T05:01:38;95297.13;;;16.63;100.00
20119;BME280;10220;42.716;23.306;2022-09-03T05:04:04;95290.94;;;16.52;100.00
20119;BME280;10220;42.716;23.306;2022-09-03T05:06:31;95305.28;;;16.50;100.00
20119;BME280;10220;42.716;23.306;2022-09-03T05:08:57;95308.22;;;16.53;100.00
20119;BME280;10220;42.716;23.306;2022-09-03T05:11:23;95313.41;;;16.65;100.00
20119;BME280;10220;42.716;23.306;2022-09-03T05:13:50;95304.72;;;16.48;100.00
20119;BME280;10220;42.716;23.306;2022-09-03T05:16:17;95309.97;;;16.64;100.00
20119;BME280;10220;42.716;23.306;2022-09-03T05:18:43;95307.75;;;16.56;100.00
20119;BME280;10220;42.716;23.306;2022-09-03T05:21:11;95316.41;;;16.57;100.00
20119;BME280;10220;42.716;23.306;2022-09-03T05:23:39;95305.50;;;16.48;100.00
20119;BME280;10220;42.716;23.306;2022-09-03T05:26:08;95308.78;;;16.72;100.00
20119;BME280;10220;42.716;23.306;2022-09-03T05:28:36;95315.88;;;16.71;100.00
20119;BME280;10220;42.716;23.306;2022-09-03T05:31:07;95290.38;;;16.67;100.00
20119;BME280;10220;42.716;23.306;2022-09-03T05:33:37;95304.91;;;16.74;100.00
20119;BME280;10220;42.716;23.306;2022-09-03T05:36:05;95318.38;;;16.83;100.00
20119;BME280;10220;42.716;23.306;2022-09-03T05:38:31;95287.53;;;16.52;100.00
20119;BME280;10220;42.716;23.306;2022-09-03T05:41:03;95321.06;;;16.55;100.00
20119;BME280;10220;42.716;23.306;2022-09-03T05:43:30;95320.75;;;16.68;100.00
20119;BME280;10220;42.716;23.306;2022-09-03T05:45:57;95257.31;;;16.45;100.00
20119;BME280;10220;42.716;23.306;2022-09-03T05:48:31;95317.28;;;16.79;100.00
20119;BME280;10220;42.716;23.306;2022-09-03T05:51:14;95323.41;;;16.84;100.00
20119;BME280;10220;42.716;23.306;2022-09-03T05:53:44;95327.75;;;16.95;100.00
20119;BME280;10220;42.716;23.306;2022-09-03T05:56:20;95329.19;;;16.86;100.00
20119;BME280;10220;42.716;23.306;2022-09-03T05:58:51;95315.16;;;16.92;100.00
20119;BME280;10220;42.716;23.306;2022-09-03T06:03:53;95320.56;;;16.86;100.00
20119;BME280;10220;42.716;23.306;2022-09-03T06:06:19;95323.41;;;16.84;100.00
20119;BME280;10220;42.716;23.306;2022-09-03T06:08:50;95329.34;;;17.12;100.00
20119;BME280;10220;42.716;23.306;2022-09-03T06:11:16;95318.66;;;17.30;100.00
20119;BME280;10220;42.716;23.306;2022-09-03T06:13:41;95306.34;;;17.14;100.00
20119;BME280;10220;42.716;23.306;2022-09-03T06:16:07;95331.09;;;17.40;100.00
20119;BME280;10220;42.716;23.306;2022-09-03T06:18:32;95328.31;;;17.46;100.00
20119;BME280;10220;42.716;23.306;2022-09-03T06:21:05;95311.13;;;17.34;100.00
20119;BME280;10220;42.716;23.306;2022-09-03T06:23:31;95319.84;;;17.39;100.00
20119;BME280;10220;42.716;23.306;2022-09-03T06:26:05;95333.94;;;17.55;100.00
20119;BME280;10220;42.716;23.306;2022-09-03T06:28:32;95324.41;;;17.65;100.00
20119;BME280;10220;42.716;23.306;2022-09-03T06:30:59;95335.47;;;17.72;100.00
20119;BME280;10220;42.716;23.306;2022-09-03T06:33:25;95291.16;;;17.49;100.00
20119;BME280;10220;42.716;23.306;2022-09-03T06:35:54;95330.88;;;17.79;100.00
20119;BME280;10220;42.716;23.306;2022-09-03T06:38:25;95325.31;;;17.75;100.00
20119;BME280;10220;42.716;23.306;2022-09-03T06:40:55;95341.97;;;17.86;100.00
20119;BME280;10220;42.716;23.306;2022-09-03T06:43:22;95336.91;;;18.01;100.00
20119;BME280;10220;42.716;23.306;2022-09-03T06:48:20;95339.16;;;18.14;100.00
20119;BME280;10220;42.716;23.306;2022-09-03T06:51:02;95331.13;;;18.20;100.00
20119;BME280;10220;42.716;23.306;2022-09-03T06:53:30;95336.44;;;18.25;100.00
20119;BME280;10220;42.716;23.306;2022-09-03T06:56:01;95335.94;;;18.28;100.00
20119;BME280;10220;42.716;23.306;2022-09-03T06:58:32;95335.38;;;18.47;100.00
20119;BME280;10220;42.716;23.306;2022-09-03T07:01:08;95336.25;;;18.58;100.00
20119;BME280;10220;42.716;23.306;2022-09-03T07:03:35;95341.44;;;18.48;100.00
20119;BME280;10220;42.716;23.306;2022-09-03T07:06:03;95333.25;;;18.44;100.00
20119;BME280;10220;42.716;23.306;2022-09-03T07:08:30;95352.66;;;18.43;100.00
20119;BME280;10220;42.716;23.306;2022-09-03T07:10:58;95303.72;;;18.11;100.00
20119;BME280;10220;42.716;23.306;2022-09-03T07:13:24;95338.94;;;18.63;100.00
20119;BME280;10220;42.716;23.306;2022-09-03T07:16:01;95356.38;;;18.74;100.00
20119;BME280;10220;42.716;23.306;2022-09-03T07:18:27;95347.56;;;18.84;100.00
20119;BME280;10220;42.716;23.306;2022-09-03T07:21:00;95359.28;;;19.30;100.00
20119;BME280;10220;42.716;23.306;2022-09-03T07:23:27;95368.91;;;19.50;100.00
20119;BME280;10220;42.716;23.306;2022-09-03T07:25:54;95354.56;;;19.32;100.00
20119;BME280;10220;42.716;23.306;2022-09-03T07:28:20;95342.22;;;19.37;100.00
20119;BME280;10220;42.716;23.306;2022-09-03T07:30:45;95366.19;;;19.41;100.00
20119;BME280;10220;42.716;23.306;2022-09-03T07:33:11;95369.31;;;19.74;100.00
20119;BME280;10220;42.716;23.306;2022-09-03T07:35:36;95324.06;;;19.72;100.00
20119;BME280;10220;42.716;23.306;2022-09-03T07:38:01;95372.94;;;20.04;100.00
20119;BME280;10220;42.716;23.306;2022-09-03T07:40:27;95380.75;;;19.94;100.00
20119;BME280;10220;42.716;23.306;2022-09-03T07:42:56;95381.28;;;19.91;100.00
20119;BME280;10220;42.716;23.306;2022-09-03T07:45:26;95375.81;;;20.03;100.00
20119;BME280;10220;42.716;23.306;2022-09-03T07:47:53;95372.47;;;19.76;100.00
20119;BME280;10220;42.716;23.306;2022-09-03T07:50:18;95369.19;;;19.95;100.00
20119;BME280;10220;42.716;23.306;2022-09-03T07:52:44;95372.22;;;20.18;100.00
20119;BME280;10220;42.716;23.306;2022-09-03T07:55:10;95384.09;;;20.26;100.00
20119;BME280;10220;42.716;23.306;2022-09-03T07:57:36;95390.78;;;19.97;100.00
20119;BME280;10220;42.716;23.306;2022-09-03T08:00:01;95379.25;;;19.67;100.00
20119;BME280;10220;42.716;23.306;2022-09-03T08:02:27;95390.16;;;19.49;100.00
20119;BME280;10220;42.716;23.306;2022-09-03T08:04:52;95391.53;;;19.56;100.00
20119;BME280;10220;42.716;23.306;2022-09-03T08:07:17;95378.88;;;19.90;100.00
20119;BME280;10220;42.716;23.306;2022-09-03T08:09:43;95385.19;;;19.89;100.00
20119;BME280;10220;42.716;23.306;2022-09-03T08:12:08;95394.91;;;19.88;100.00
20119;BME280;10220;42.716;23.306;2022-09-03T08:14:34;95383.94;;;19.96;100.00
20119;BME280;10220;42.716;23.306;2022-09-03T08:16:59;95376.41;;;20.14;100.00
20119;BME280;10220;42.716;23.306;2022-09-03T08:19:25;95388.13;;;19.92;100.00
20119;BME280;10220;42.716;23.306;2022-09-03T08:21:50;95396.66;;;20.09;100.00
20119;BME280;10220;42.716;23.306;2022-09-03T08:24:16;95387.91;;;19.99;100.00
20119;BME280;10220;42.716;23.306;2022-09-03T08:26:45;95393.56;;;20.22;100.00
20119;BME280;10220;42.716;23.306;2022-09-03T08:29:10;95394.66;;;19.90;100.00
20119;BME280;10220;42.716;23.306;2022-09-03T08:31:36;95385.25;;;19.94;100.00
20119;BME280;10220;42.716;23.306;2022-09-03T08:34:04;95385.59;;;20.12;100.00
20119;BME280;10220;42.716;23.306;2022-09-03T08:36:32;95381.88;;;20.03;100.00
20119;BME280;10220;42.716;23.306;2022-09-03T08:39:00;95381.06;;;19.98;100.00
20119;BME280;10220;42.716;23.306;2022-09-03T08:44:44;95352.22;;;20.22;100.00
20119;BME280;10220;42.716;23.306;2022-09-03T08:50:21;95379.31;;;20.89;100.00
20119;BME280;10220;42.716;23.306;2022-09-03T08:58:10;95377.50;;;21.09;100.00
20119;BME280;10220;42.716;23.306;2022-09-03T09:20:08;95395.69;;;21.80;100.00
20119;BME280;10220;42.716;23.306;2022-09-03T09:22:42;95361.16;;;21.07;100.00
20119;BME280;10220;42.716;23.306;2022-09-03T09:25:18;95387.78;;;21.16;100.00
20119;BME280;10220;42.716;23.306;2022-09-03T09:28:02;95393.84;;;21.36;100.00
20119;BME280;10220;42.716;23.306;2022-09-03T09:30:30;95379.34;;;21.43;100.00
20119;BME280;10220;42.716;23.306;2022-09-03T09:32:55;95406.00;;;21.77;100.00
20119;BME280;10220;42.716;23.306;2022-09-03T09:35:22;95401.75;;;21.90;100.00
20119;BME280;10220;42.716;23.306;2022-09-03T09:37:56;95401.50;;;21.92;100.00
20119;BME280;10220;42.716;23.306;2022-09-03T09:40:31;95401.47;;;22.07;100.00
20119;BME280;10220;42.716;23.306;2022-09-03T09:45:33;95384.81;;;22.31;100.00
20119;BME280;10220;42.716;23.306;2022-09-03T09:48:00;95378.53;;;21.92;100.00
20119;BME280;10220;42.716;23.306;2022-09-03T09:50:27;95365.06;;;22.04;100.00
20119;BME280;10220;42.716;23.306;2022-09-03T09:53:04;95393.41;;;22.56;100.00
20119;BME280;10220;42.716;23.306;2022-09-03T09:55:51;95399.78;;;22.45;100.00
20119;BME280;10220;42.716;23.306;2022-09-03T09:58:23;95389.16;;;22.60;100.00
20119;BME280;10220;42.716;23.306;2022-09-03T10:00:56;95404.94;;;22.80;100.00
20119;BME280;10220;42.716;23.306;2022-09-03T10:03:22;95388.22;;;22.37;100.00
20119;BME280;10220;42.716;23.306;2022-09-03T10:08:47;95406.84;;;22.65;100.00
20119;BME280;10220;42.716;23.306;2022-09-03T10:11:13;95396.47;;;22.78;100.00
20119;BME280;10220;42.716;23.306;2022-09-03T10:13:44;95407.00;;;22.88;100.00
20119;BME280;10220;42.716;23.306;2022-09-03T10:16:24;95404.38;;;22.83;100.00
20119;BME280;10220;42.716;23.306;2022-09-03T10:18:59;95405.66;;;22.91;100.00
20119;BME280;10220;42.716;23.306;2022-09-03T10:21:44;95400.31;;;23.05;100.00
20119;BME280;10220;42.716;23.306;2022-09-03T10:26:40;95392.66;;;23.04;100.00
20119;BME280;10220;42.716;23.306;2022-09-03T10:29:06;95398.66;;;23.14;100.00
20119;BME280;10220;42.716;23.306;2022-09-03T10:32:02;95392.94;;;22.93;100.00
20119;BME280;10220;42.716;23.306;2022-09-03T10:34:43;95400.75;;;23.17;100.00
20119;BME280;10220;42.716;23.306;2022-09-03T10:37:28;95380.94;;;23.15;100.00
20119;BME280;10220;42.716;23.306;2022-09-03T10:46:18;95370.31;;;22.77;100.00
20119;BME280;10220;42.716;23.306;2022-09-03T10:51:26;95399.19;;;23.50;100.00
20119;BME280;10220;42.716;23.306;2022-09-03T11:05:29;95387.56;;;23.12;100.00
20119;BME280;10220;42.716;23.306;2022-09-03T11:08:06;95394.88;;;23.63;100.00
20119;BME280;10220;42.716;23.306;2022-09-03T11:10:39;95397.22;;;23.65;100.00
20119;BME280;10220;42.716;23.306;2022-09-03T11:13:48;95398.59;;;24.42;100.00
20119;BME280;10220;42.716;23.306;2022-09-03T11:16:24;95408.66;;;24.45;100.00
20119;BME280;10220;42.716;23.306;2022-09-03T11:19:06;95393.25;;;24.47;100.00
20119;BME280;10220;42.716;23.306;2022-09-03T11:21:33;95347.03;;;24.12;100.00
20119;BME280;10220;42.716;23.306;2022-09-03T11:24:08;95391.69;;;23.95;100.00
20119;BME280;10220;42.716;23.306;2022-09-03T11:26:37;95390.81;;;24.27;100.00
20119;BME280;10220;42.716;23.306;2022-09-03T11:32:03;95393.50;;;24.23;100.00
20119;BME280;10220;42.716;23.306;2022-09-03T11:34:52;95386.16;;;24.43;100.00
20119;BME280;10220;42.716;23.306;2022-09-03T11:37:22;95393.88;;;24.11;100.00
20119;BME280;10220;42.716;23.306;2022-09-03T11:42:31;95399.84;;;23.32;100.00
20119;BME280;10220;42.716;23.306;2022-09-03T11:47:54;95397.47;;;23.35;100.00
20119;BME280;10220;42.716;23.306;2022-09-03T11:50:29;95396.94;;;23.66;100.00
20119;BME280;10220;42.716;23.306;2022-09-03T11:55:59;95393.94;;;23.83;100.00
20119;BME280;10220;42.716;23.306;2022-09-03T11:58:36;95375.84;;;23.90;100.00
20119;BME280;10220;42.716;23.306;2022-09-03T12:01:08;95394.47;;;24.08;100.00
20119;BME280;10220;42.716;23.306;2022-09-03T12:03:43;95385.47;;;24.32;100.00
20119;BME280;10220;42.716;23.306;2022-09-03T12:06:31;95393.81;;;23.93;100.00
20119;BME280;10220;42.716;23.306;2022-09-03T12:09:24;95381.91;;;23.90;100.00
20119;BME280;10220;42.716;23.306;2022-09-03T12:15:20;95376.88;;;23.94;100.00
20119;BME280;10220;42.716;23.306;2022-09-03T12:18:02;95390.50;;;24.06;100.00
20119;BME280;10220;42.716;23.306;2022-09-03T12:20:45;95342.44;;;23.94;100.00
20119;BME280;10220;42.716;23.306;2022-09-03T12:23:13;95376.03;;;24.22;100.00
20119;BME280;10220;42.716;23.306;2022-09-03T12:25:51;95376.09;;;24.17;100.00
20119;BME280;10220;42.716;23.306;2022-09-03T12:28:21;95368.16;;;24.17;100.00
20119;BME280;10220;42.716;23.306;2022-09-03T12:30:48;95364.06;;;24.24;100.00
20119;BME280;10220;42.716;23.306;2022-09-03T12:33:19;95377.16;;;24.16;100.00
20119;BME280;10220;42.716;23.306;2022-09-03T12:35:59;95379.47;;;23.99;100.00
20119;BME280;10220;42.716;23.306;2022-09-03T12:38:26;95376.00;;;23.98;100.00
20119;BME280;10220;42.716;23.306;2022-09-03T12:40:52;95375.50;;;23.68;100.00
20119;BME280;10220;42.716;23.306;2022-09-03T12:43:19;95354.47;;;23.53;100.00
20119;BME280;10220;42.716;23.306;2022-09-03T12:45:48;95374.53;;;23.87;100.00
20119;BME280;10220;42.716;23.306;2022-09-03T12:48:17;95366.00;;;23.95;100.00
20119;BME280;10220;42.716;23.306;2022-09-03T12:50:44;95368.22;;;23.83;100.00
20119;BME280;10220;42.716;23.306;2022-09-03T12:53:13;95360.09;;;23.75;100.00
20119;BME280;10220;42.716;23.306;2022-09-03T12:55:41;95318.16;;;23.59;100.00
20119;BME280;10220;42.716;23.306;2022-09-03T12:58:20;95350.72;;;23.87;100.00
20119;BME280;10220;42.716;23.306;2022-09-03T13:06:06;95347.78;;;23.89;100.00
20119;BME280;10220;42.716;23.306;2022-09-03T13:08:43;95346.38;;;23.96;100.00
20119;BME280;10220;42.716;23.306;2022-09-03T13:11:15;95344.22;;;23.98;100.00
20119;BME280;10220;42.716;23.306;2022-09-03T13:13:51;95329.94;;;23.99;100.00
20119;BME280;10220;42.716;23.306;2022-09-03T13:22:14;95333.81;;;23.83;100.00
20119;BME280;10220;42.716;23.306;2022-09-03T13:35:25;95316.31;;;23.87;100.00
20119;BME280;10220;42.716;23.306;2022-09-03T13:43:02;95312.53;;;23.70;100.00
20119;BME280;10220;42.716;23.306;2022-09-03T13:45:40;95312.97;;;23.77;100.00
20119;BME280;10220;42.716;23.306;2022-09-03T13:48:19;95328.97;;;23.90;99.78
20119;BME280;10220;42.716;23.306;2022-09-03T13:51:27;95320.06;;;23.81;100.00
20119;BME280;10220;42.716;23.306;2022-09-03T13:59:23;95279.16;;;23.41;100.00
20119;BME280;10220;42.716;23.306;2022-09-03T14:07:27;95336.41;;;23.88;100.00
20119;BME280;10220;42.716;23.306;2022-09-03T14:10:29;95316.47;;;23.67;100.00
20119;BME280;10220;42.716;23.306;2022-09-03T14:13:27;95323.28;;;23.78;99.58
20119;BME280;10220;42.716;23.306;2022-09-03T14:16:25;95331.63;;;23.90;100.00
20119;BME280;10220;42.716;23.306;2022-09-03T14:19:04;95327.78;;;23.78;100.00
20119;BME280;10220;42.716;23.306;2022-09-03T14:21:39;95326.31;;;23.90;98.60
20119;BME280;10220;42.716;23.306;2022-09-03T14:24:23;95326.84;;;23.92;100.00
20119;BME280;10220;42.716;23.306;2022-09-03T14:26:53;95322.03;;;23.94;100.00
20119;BME280;10220;42.716;23.306;2022-09-03T14:29:24;95326.47;;;24.04;99.84
20119;BME280;10220;42.716;23.306;2022-09-03T14:34:54;95322.78;;;24.00;100.00
20119;BME280;10220;42.716;23.306;2022-09-03T14:40:12;95318.72;;;23.84;100.00
20119;BME280;10220;42.716;23.306;2022-09-03T14:56:47;95324.47;;;23.91;94.65
20119;BME280;10220;42.716;23.306;2022-09-03T14:59:26;95318.66;;;23.89;95.97
20119;BME280;10220;42.716;23.306;2022-09-03T15:10:46;95341.94;;;23.30;100.00
20119;BME280;10220;42.716;23.306;2022-09-03T15:13:27;95332.38;;;23.34;100.00
20119;BME280;10220;42.716;23.306;2022-09-03T15:19:11;95344.81;;;23.39;100.00
20119;BME280;10220;42.716;23.306;2022-09-03T15:22:10;95311.09;;;23.21;100.00
20119;BME280;10220;42.716;23.306;2022-09-03T15:38:19;95345.00;;;23.14;100.00
20119;BME280;10220;42.716;23.306;2022-09-03T15:40:51;95353.66;;;23.24;100.00
20119;BME280;10220;42.716;23.306;2022-09-03T15:43:30;95353.84;;;22.95;100.00
20119;BME280;10220;42.716;23.306;2022-09-03T15:46:08;95364.34;;;23.04;100.00
20119;BME280;10220;42.716;23.306;2022-09-03T15:49:03;95356.09;;;23.16;100.00
20119;BME280;10220;42.716;23.306;2022-09-03T15:51:57;95362.25;;;23.06;100.00
20119;BME280;10220;42.716;23.306;2022-09-03T15:54:40;95359.63;;;23.02;100.00
20119;BME280;10220;42.716;23.306;2022-09-03T16:00:20;95354.16;;;22.83;100.00
20119;BME280;10220;42.716;23.306;2022-09-03T16:05:46;95358.78;;;22.58;100.00
20119;BME280;10220;42.716;23.306;2022-09-03T16:08:22;95370.44;;;22.57;100.00
20119;BME280;10220;42.716;23.306;2022-09-03T16:16:04;95363.38;;;22.43;100.00
20119;BME280;10220;42.716;23.306;2022-09-03T16:18:41;95375.28;;;22.35;100.00
20119;BME280;10220;42.716;23.306;2022-09-03T16:24:23;95378.69;;;22.36;100.00
20119;BME280;10220;42.716;23.306;2022-09-03T16:26:56;95381.88;;;22.33;100.00
20119;BME280;10220;42.716;23.306;2022-09-03T16:29:29;95390.81;;;22.46;100.00
20119;BME280;10220;42.716;23.306;2022-09-03T16:34:38;95390.31;;;22.35;100.00
20119;BME280;10220;42.716;23.306;2022-09-03T16:40:16;95382.72;;;22.13;100.00
20119;BME280;10220;42.716;23.306;2022-09-03T16:45:49;95401.41;;;22.32;100.00
20119;BME280;10220;42.716;23.306;2022-09-03T17:02:06;95414.47;;;21.64;100.00
20119;BME280;10220;42.716;23.306;2022-09-03T17:05:17;95414.41;;;21.49;100.00
20119;BME280;10220;42.716;23.306;2022-09-03T17:15:40;95436.09;;;21.51;100.00
20119;BME280;10220;42.716;23.306;2022-09-03T17:20:50;95435.53;;;21.39;100.00
20119;BME280;10220;42.716;23.306;2022-09-03T17:37:39;95465.00;;;21.11;100.00
20119;BME280;10220;42.716;23.306;2022-09-03T17:42:18;95489.00;;;21.15;100.00